createdAt,value
2022-09-06T00:04:38.531Z,67.29
2022-09-06T00:09:37.727Z,67.09
2022-09-06T00:14:36.815Z,67.21
2022-09-06T00:19:38.197Z,67.06
2022-09-06T00:24:40.100Z,67.29
2022-09-06T00:29:39.574Z,68.06
2022-09-06T00:34:39.157Z,67.76
2022-09-06T00:39:38.535Z,67.73
2022-09-06T00:44:37.525Z,68.22
2022-09-06T00:49:42.347Z,68.34
2022-09-06T00:54:44.008Z,68.23
2022-09-06T00:59:44.586Z,68.30
2022-09-06T01:04:46.449Z,68.74
2022-09-06T01:10:10.662Z,68.71
2022-09-06T01:15:29.957Z,69.15
2022-09-06T01:20:51.887Z,69.15
2022-09-06T01:26:09.022Z,69.01
2022-09-06T01:31:31.162Z,69.15
2022-09-06T01:36:54.350Z,69.17
2022-09-06T01:41:54.404Z,69.30
2022-09-06T01:47:05.062Z,69.64
2022-09-06T01:52:19.725Z,69.97
2022-09-06T01:57:36.469Z,70.53
2022-09-06T02:02:49.868Z,70.66
2022-09-06T02:07:54.126Z,70.85
2022-09-06T02:13:01.180Z,71.03
2022-09-06T02:18:07.661Z,71.34
2022-09-06T02:23:11.079Z,71.49
2022-09-06T02:28:11.328Z,71.63
2022-09-06T02:33:15.795Z,72.16
2022-09-06T02:38:14.863Z,72.26
2022-09-06T02:43:14.441Z,72.12
2022-09-06T02:48:14.747Z,72.50
2022-09-06T02:53:16.868Z,72.35
2022-09-06T02:58:16.516Z,72.18
2022-09-06T03:03:14.908Z,72.23
2022-09-06T03:08:13.995Z,72.69
2022-09-06T03:13:12.906Z,72.40
2022-09-06T03:18:11.596Z,72.66
2022-09-06T03:23:11.319Z,72.73
2022-09-06T03:28:09.976Z,72.90
2022-09-06T03:33:08.992Z,72.94
2022-09-06T03:38:07.718Z,72.70
2022-09-06T03:43:05.928Z,73.03
2022-09-06T03:48:06.352Z,73.64
2022-09-06T03:53:05.265Z,74.03
2022-09-06T03:58:03.927Z,74.43
2022-09-06T04:03:02.390Z,74.38
2022-09-06T04:08:01.753Z,74.46
2022-09-06T04:13:00.734Z,74.50
2022-09-06T04:17:59.903Z,74.63
2022-09-06T04:22:58.763Z,74.69
2022-09-06T04:27:58.337Z,74.88
2022-09-06T04:32:58.095Z,75.01
2022-09-06T04:37:57.090Z,75.27
2022-09-06T04:42:56.249Z,75.31
2022-09-06T04:47:55.258Z,75.36
2022-09-06T04:52:53.959Z,75.50
2022-09-06T04:57:52.415Z,75.77
2022-09-06T05:02:51.232Z,75.93
2022-09-06T05:07:52.908Z,76.00
2022-09-06T05:12:55.340Z,76.13
2022-09-06T05:17:55.830Z,76.54
2022-09-06T05:22:57.957Z,76.55
2022-09-06T05:27:57.440Z,76.83
2022-09-06T05:32:57.198Z,77.36
2022-09-06T05:37:55.635Z,77.24
2022-09-06T05:42:54.074Z,76.92
2022-09-06T05:47:52.783Z,76.73
2022-09-06T05:52:54.666Z,76.53
2022-09-06T05:57:53.690Z,75.40
2022-09-06T06:02:53.754Z,75.26
2022-09-06T06:07:52.846Z,74.48
2022-09-06T06:12:51.778Z,73.90
2022-09-06T06:17:50.999Z,72.93
2022-09-06T06:22:50.208Z,72.02
2022-09-06T06:27:49.264Z,70.73
2022-09-06T06:32:48.451Z,69.52
2022-09-06T06:37:47.049Z,68.94
2022-09-06T06:42:46.298Z,67.52
2022-09-06T06:47:45.538Z,66.46
2022-09-06T06:52:43.906Z,65.64
2022-09-06T06:57:43.423Z,64.36
2022-09-06T07:02:41.949Z,63.08
2022-09-06T07:07:41.639Z,60.87
2022-09-06T07:12:40.715Z,60.20
2022-09-06T07:17:39.954Z,59.00
2022-09-06T07:22:38.670Z,58.07
2022-09-06T07:27:52.870Z,57.69
2022-09-06T07:32:52.169Z,55.66
2022-09-06T07:37:59.875Z,53.18
2022-09-06T07:43:00.844Z,52.76
2022-09-06T07:48:00.933Z,52.54
2022-09-06T07:53:09.701Z,51.63
2022-09-06T07:58:12.687Z,50.12
2022-09-06T08:03:11.347Z,50.42
2022-09-06T08:13:29.577Z,49.47
2022-09-06T08:18:29.248Z,48.90
2022-09-06T08:23:29.378Z,48.60
2022-09-06T08:28:29.178Z,46.96
2022-09-06T08:33:28.588Z,46.55
2022-09-06T08:38:29.709Z,45.90
2022-09-06T08:43:33.187Z,45.94
2022-09-06T08:48:38.703Z,46.45
2022-09-06T08:53:46.682Z,45.88
2022-09-06T08:59:05.516Z,45.48
2022-09-06T09:04:14.165Z,44.46
2022-09-06T09:09:17.805Z,44.46
2022-09-06T09:14:27.148Z,44.41
2022-09-06T09:19:26.661Z,42.77
2022-09-06T09:24:25.723Z,42.37
2022-09-06T09:29:28.719Z,42.38
2022-09-06T09:34:38.937Z,42.42
2022-09-06T09:39:41.517Z,42.18
2022-09-06T09:44:45.706Z,42.52
2022-09-06T09:49:44.413Z,40.86
2022-09-06T09:54:46.933Z,39.87
2022-09-06T09:59:53.922Z,38.09
2022-09-06T10:05:00.548Z,37.75
2022-09-06T10:10:07.601Z,36.68
2022-09-06T10:15:08.822Z,34.37
2022-09-06T10:20:13.190Z,33.69
2022-09-06T10:25:55.487Z,31.42
2022-09-06T10:31:34.319Z,32.45
2022-09-06T10:36:39.272Z,31.47
2022-09-06T10:42:02.882Z,30.85
2022-09-06T10:47:10.522Z,28.94
2022-09-06T10:52:16.260Z,29.44
2022-09-06T11:13:43.584Z,27.39
2022-09-06T11:18:48.202Z,26.31
2022-09-06T11:23:53.147Z,26.38
2022-09-06T11:28:57.954Z,25.59
2022-09-06T11:34:11.595Z,24.91
2022-09-06T11:39:12.352Z,25.70
2022-09-06T11:44:12.365Z,25.85
2022-09-06T11:49:29.371Z,26.08
2022-09-06T11:54:46.394Z,25.91
2022-09-06T11:59:58.274Z,25.53
2022-09-06T12:05:26.254Z,23.91
2022-09-06T12:10:59.416Z,23.38
2022-09-06T12:15:59.845Z,23.52
2022-09-06T12:21:09.190Z,22.65
2022-09-06T12:26:10.259Z,21.58
2022-09-06T12:31:43.224Z,22.65
2022-09-06T12:36:54.931Z,22.66
2022-09-06T12:41:58.773Z,23.53
2022-09-06T12:47:00.758Z,22.34
2022-09-06T12:52:12.815Z,21.70
2022-09-06T12:57:22.768Z,20.73
2022-09-06T13:02:28.998Z,20.36
2022-09-06T13:07:31.915Z,18.73
2022-09-06T13:12:36.611Z,18.54
2022-09-06T13:17:38.059Z,17.56
2022-09-06T13:22:52.082Z,17.05
2022-09-06T13:27:57.705Z,16.99
2022-09-06T13:32:57.104Z,15.80
2022-09-06T13:38:15.468Z,16.01
2022-09-06T13:43:16.499Z,15.61
2022-09-06T13:48:28.819Z,15.19
2022-09-06T13:53:34.927Z,15.11
2022-09-06T13:58:34.653Z,15.30
2022-09-06T14:03:35.570Z,14.67
2022-09-06T14:08:56.308Z,15.03
2022-09-06T14:13:56.495Z,15.47
2022-09-06T14:18:55.432Z,15.98
2022-09-06T14:23:55.015Z,16.38
2022-09-06T14:28:54.232Z,17.62
2022-09-06T14:33:53.900Z,17.85
2022-09-06T14:38:54.961Z,17.48
2022-09-06T14:43:57.292Z,18.71
2022-09-06T14:49:02.925Z,19.09
2022-09-06T14:54:06.999Z,19.30
2022-09-06T14:59:06.162Z,20.33
2022-09-06T15:04:07.988Z,20.22
2022-09-06T15:09:07.269Z,20.47
2022-09-06T15:14:09.269Z,20.72
2022-09-06T15:19:10.571Z,20.77
2022-09-06T15:24:12.194Z,20.72
2022-09-06T15:29:13.481Z,21.48
2022-09-06T15:34:13.973Z,22.01
2022-09-06T15:39:13.255Z,22.27
2022-09-06T15:44:16.261Z,23.26
2022-09-06T15:49:26.920Z,23.72
2022-09-06T15:54:41.784Z,24.24
2022-09-06T15:59:42.285Z,24.44
2022-09-06T16:04:41.725Z,24.46
2022-09-06T16:09:41.117Z,24.65
2022-09-06T16:14:42.612Z,24.60
2022-09-06T16:19:41.998Z,24.63
2022-09-06T16:24:41.247Z,24.71
2022-09-06T16:29:41.537Z,24.92
2022-09-06T16:34:40.829Z,25.18
2022-09-06T16:39:40.650Z,25.32
2022-09-06T16:44:42.134Z,25.88
2022-09-06T16:49:41.727Z,26.22
2022-09-06T16:54:40.130Z,26.93
2022-09-06T16:59:39.385Z,27.47
2022-09-06T17:04:38.709Z,28.23
2022-09-06T17:09:37.297Z,28.58
2022-09-06T17:14:37.288Z,29.29
2022-09-06T17:19:41.615Z,30.51
2022-09-06T17:24:41.582Z,31.05
2022-09-06T17:29:41.400Z,31.82
2022-09-06T17:34:41.280Z,33.73
2022-09-06T17:39:41.453Z,33.74
2022-09-06T17:44:40.887Z,33.82
2022-09-06T17:49:39.987Z,34.13
2022-09-06T17:54:39.098Z,34.84
2022-09-06T17:59:40.067Z,35.31
2022-09-06T18:04:39.499Z,36.23
2022-09-06T18:09:40.673Z,36.60
2022-09-06T18:14:40.399Z,37.28
2022-09-06T18:19:41.617Z,36.98
2022-09-06T18:24:40.430Z,37.23
2022-09-06T18:29:39.563Z,38.93
2022-09-06T18:34:39.357Z,38.72
2022-09-06T18:39:39.815Z,38.92
2022-09-06T18:44:39.658Z,39.54
2022-09-06T18:49:43.803Z,40.07
2022-09-06T18:54:45.092Z,40.30
2022-09-06T18:59:44.688Z,40.78
2022-09-06T19:04:43.530Z,41.15
2022-09-06T19:09:42.990Z,40.74
2022-09-06T19:14:42.127Z,41.10
2022-09-06T19:19:41.223Z,42.75
2022-09-06T19:24:40.768Z,44.80
2022-09-06T19:29:39.970Z,46.93
2022-09-06T19:34:39.581Z,46.22
2022-09-06T19:39:38.136Z,47.20
2022-09-06T19:44:37.154Z,48.26
2022-09-06T19:49:36.371Z,48.62
2022-09-06T19:54:35.052Z,48.69
2022-09-06T19:59:36.339Z,51.01
2022-09-06T20:04:35.109Z,51.57
2022-09-06T20:09:33.707Z,51.37
2022-09-06T20:14:33.213Z,49.93
2022-09-06T20:19:32.127Z,48.99
2022-09-06T20:24:31.068Z,49.48
2022-09-06T20:29:29.891Z,49.65
2022-09-06T20:34:29.037Z,49.43
2022-09-06T20:39:28.227Z,50.18
2022-09-06T20:44:27.252Z,51.50
2022-09-06T20:49:26.530Z,50.89
2022-09-06T20:54:25.276Z,51.21
2022-09-06T20:59:24.631Z,51.99
2022-09-06T21:04:26.072Z,53.09
2022-09-06T21:09:25.001Z,52.29
2022-09-06T21:14:24.166Z,52.21
2022-09-06T21:19:23.317Z,53.19
2022-09-06T21:24:22.431Z,53.42
2022-09-06T21:29:21.737Z,52.83
2022-09-06T21:34:20.437Z,53.14
2022-09-06T21:39:19.863Z,53.99
2022-09-06T21:44:18.987Z,54.12
2022-09-06T21:49:18.771Z,54.30
2022-09-06T21:54:29.768Z,54.54
2022-09-06T21:59:28.521Z,54.78
2022-09-06T22:04:28.841Z,54.36
2022-09-06T22:09:28.752Z,54.67
2022-09-06T22:14:28.547Z,54.73
2022-09-06T22:19:29.206Z,55.66
2022-09-06T22:24:29.715Z,54.97
2022-09-06T22:29:30.604Z,55.74
2022-09-06T22:34:30.649Z,56.34
2022-09-06T22:39:31.338Z,57.80
2022-09-06T22:44:31.922Z,59.06
2022-09-06T22:49:32.250Z,59.39
2022-09-06T22:54:32.442Z,59.42
2022-09-06T22:59:32.904Z,59.03
2022-09-06T23:04:34.006Z,59.08
2022-09-06T23:09:33.714Z,59.29
2022-09-06T23:14:34.698Z,58.91
2022-09-06T23:19:35.164Z,59.25
2022-09-06T23:24:35.369Z,59.37
2022-09-06T23:29:35.345Z,60.00
2022-09-06T23:34:35.191Z,59.84
2022-09-06T23:39:35.203Z,59.86
2022-09-06T23:44:34.374Z,60.20
2022-09-06T23:49:33.595Z,60.44
2022-09-06T23:54:33.069Z,62.22
2022-09-06T23:59:32.564Z,62.44
